sensor_id;sensor_type;location;lat;lon;timestamp;P1;durP1;ratioP1;P2;durP2;ratioP2
55827;SDS011;41758;51.992;5.890;2023-01-26T00:00:59;92.00;;;30.05;;
55827;SDS011;41758;51.992;5.890;2023-01-26T00:03:25;85.07;;;30.58;;
55827;SDS011;41758;51.992;5.890;2023-01-26T00:05:51;92.50;;;31.67;;
55827;SDS011;41758;51.992;5.890;2023-01-26T00:08:17;85.38;;;30.80;;
55827;SDS011;41758;51.992;5.890;2023-01-26T00:10:43;83.20;;;30.67;;
55827;SDS011;41758;51.992;5.890;2023-01-26T00:13:15;83.65;;;29.85;;
55827;SDS011;41758;51.992;5.890;2023-01-26T00:15:44;84.38;;;31.00;;
55827;SDS011;41758;51.992;5.890;2023-01-26T00:18:10;87.45;;;31.35;;
55827;SDS011;41758;51.992;5.890;2023-01-26T00:20:35;86.63;;;30.27;;
55827;SDS011;41758;51.992;5.890;2023-01-26T00:23:01;80.72;;;29.88;;
55827;SDS011;41758;51.992;5.890;2023-01-26T00:25:27;81.75;;;29.17;;
55827;SDS011;41758;51.992;5.890;2023-01-26T00:27:52;83.88;;;27.80;;
55827;SDS011;41758;51.992;5.890;2023-01-26T00:30:18;82.45;;;29.75;;
55827;SDS011;41758;51.992;5.890;2023-01-26T00:32:45;78.07;;;28.25;;
55827;SDS011;41758;51.992;5.890;2023-01-26T00:35:11;85.38;;;31.90;;
55827;SDS011;41758;51.992;5.890;2023-01-26T00:37:39;79.72;;;29.95;;
55827;SDS011;41758;51.992;5.890;2023-01-26T00:40:05;85.60;;;30.30;;
55827;SDS011;41758;51.992;5.890;2023-01-26T00:42:31;83.40;;;30.90;;
55827;SDS011;41758;51.992;5.890;2023-01-26T00:44:57;77.43;;;28.80;;
55827;SDS011;41758;51.992;5.890;2023-01-26T00:47:23;77.97;;;29.80;;
55827;SDS011;41758;51.992;5.890;2023-01-26T00:49:48;79.40;;;28.55;;
55827;SDS011;41758;51.992;5.890;2023-01-26T00:52:14;82.15;;;29.52;;
55827;SDS011;41758;51.992;5.890;2023-01-26T00:54:40;87.05;;;31.33;;
55827;SDS011;41758;51.992;5.890;2023-01-26T00:57:06;87.78;;;29.92;;
55827;SDS011;41758;51.992;5.890;2023-01-26T00:59:31;76.90;;;28.75;;
55827;SDS011;41758;51.992;5.890;2023-01-26T01:01:57;84.13;;;29.23;;
55827;SDS011;41758;51.992;5.890;2023-01-26T01:04:25;90.93;;;30.30;;
55827;SDS011;41758;51.992;5.890;2023-01-26T01:06:51;84.05;;;31.02;;
55827;SDS011;41758;51.992;5.890;2023-01-26T01:09:16;81.15;;;29.60;;
55827;SDS011;41758;51.992;5.890;2023-01-26T01:11:42;79.43;;;29.75;;
55827;SDS011;41758;51.992;5.890;2023-01-26T01:14:10;88.78;;;30.27;;
55827;SDS011;41758;51.992;5.890;2023-01-26T01:16:37;78.65;;;27.77;;
55827;SDS011;41758;51.992;5.890;2023-01-26T01:19:03;81.68;;;30.33;;
55827;SDS011;41758;51.992;5.890;2023-01-26T01:21:28;80.10;;;29.40;;
55827;SDS011;41758;51.992;5.890;2023-01-26T01:23:56;79.97;;;29.27;;
55827;SDS011;41758;51.992;5.890;2023-01-26T01:26:22;79.78;;;29.98;;
55827;SDS011;41758;51.992;5.890;2023-01-26T01:28:47;87.65;;;30.50;;
55827;SDS011;41758;51.992;5.890;2023-01-26T01:31:15;79.10;;;29.42;;
55827;SDS011;41758;51.992;5.890;2023-01-26T01:33:41;76.25;;;27.80;;
55827;SDS011;41758;51.992;5.890;2023-01-26T01:36:08;76.07;;;28.88;;
55827;SDS011;41758;51.992;5.890;2023-01-26T01:38:36;77.43;;;28.08;;
55827;SDS011;41758;51.992;5.890;2023-01-26T01:41:01;72.97;;;26.33;;
55827;SDS011;41758;51.992;5.890;2023-01-26T01:43:28;71.47;;;26.20;;
55827;SDS011;41758;51.992;5.890;2023-01-26T01:45:53;74.38;;;27.60;;
55827;SDS011;41758;51.992;5.890;2023-01-26T01:50:55;75.10;;;26.17;;
55827;SDS011;41758;51.992;5.890;2023-01-26T01:53:26;77.10;;;27.02;;
55827;SDS011;41758;51.992;5.890;2023-01-26T01:55:57;72.40;;;26.65;;
55827;SDS011;41758;51.992;5.890;2023-01-26T01:58:27;70.13;;;26.95;;
55827;SDS011;41758;51.992;5.890;2023-01-26T02:00:56;66.80;;;24.45;;
55827;SDS011;41758;51.992;5.890;2023-01-26T02:03:23;73.00;;;26.13;;
55827;SDS011;41758;51.992;5.890;2023-01-26T02:05:51;66.43;;;24.42;;
55827;SDS011;41758;51.992;5.890;2023-01-26T02:08:26;70.10;;;25.65;;
55827;SDS011;41758;51.992;5.890;2023-01-26T02:13:25;67.28;;;23.73;;
55827;SDS011;41758;51.992;5.890;2023-01-26T02:15:52;64.18;;;23.85;;
55827;SDS011;41758;51.992;5.890;2023-01-26T02:18:19;64.75;;;24.55;;
55827;SDS011;41758;51.992;5.890;2023-01-26T02:20:55;68.70;;;23.98;;
55827;SDS011;41758;51.992;5.890;2023-01-26T02:26:33;61.95;;;22.45;;
55827;SDS011;41758;51.992;5.890;2023-01-26T02:29:01;61.15;;;22.85;;
55827;SDS011;41758;51.992;5.890;2023-01-26T02:31:29;62.45;;;23.60;;
55827;SDS011;41758;51.992;5.890;2023-01-26T02:33:56;58.72;;;22.30;;
55827;SDS011;41758;51.992;5.890;2023-01-26T02:36:23;56.47;;;21.63;;
55827;SDS011;41758;51.992;5.890;2023-01-26T02:41:25;62.15;;;22.85;;
55827;SDS011;41758;51.992;5.890;2023-01-26T02:44:10;60.50;;;22.20;;
55827;SDS011;41758;51.992;5.890;2023-01-26T02:46:37;59.05;;;22.05;;
55827;SDS011;41758;51.992;5.890;2023-01-26T02:49:03;51.65;;;21.73;;
55827;SDS011;41758;51.992;5.890;2023-01-26T02:51:48;49.00;;;19.05;;
55827;SDS011;41758;51.992;5.890;2023-01-26T02:54:17;52.55;;;19.63;;
55827;SDS011;41758;51.992;5.890;2023-01-26T02:57:02;56.47;;;21.40;;
55827;SDS011;41758;51.992;5.890;2023-01-26T02:59:28;53.25;;;20.83;;
55827;SDS011;41758;51.992;5.890;2023-01-26T03:01:54;54.65;;;21.20;;
55827;SDS011;41758;51.992;5.890;2023-01-26T03:04:22;55.22;;;21.27;;
55827;SDS011;41758;51.992;5.890;2023-01-26T03:06:48;54.08;;;20.27;;
55827;SDS011;41758;51.992;5.890;2023-01-26T03:09:13;54.58;;;20.35;;
55827;SDS011;41758;51.992;5.890;2023-01-26T03:11:39;54.60;;;20.75;;
55827;SDS011;41758;51.992;5.890;2023-01-26T03:14:12;56.60;;;20.52;;
55827;SDS011;41758;51.992;5.890;2023-01-26T03:16:38;52.88;;;21.02;;
55827;SDS011;41758;51.992;5.890;2023-01-26T03:19:05;55.45;;;21.08;;
55827;SDS011;41758;51.992;5.890;2023-01-26T03:21:34;57.00;;;20.63;;
55827;SDS011;41758;51.992;5.890;2023-01-26T03:27:04;50.20;;;19.08;;
55827;SDS011;41758;51.992;5.890;2023-01-26T03:29:56;48.72;;;19.60;;
55827;SDS011;41758;51.992;5.890;2023-01-26T03:32:22;51.53;;;19.65;;
55827;SDS011;41758;51.992;5.890;2023-01-26T03:34:50;47.65;;;19.10;;
55827;SDS011;41758;51.992;5.890;2023-01-26T03:37:16;48.53;;;19.60;;
55827;SDS011;41758;51.992;5.890;2023-01-26T03:40:05;48.83;;;18.58;;
55827;SDS011;41758;51.992;5.890;2023-01-26T03:42:50;48.58;;;19.10;;
55827;SDS011;41758;51.992;5.890;2023-01-26T03:45:35;48.75;;;19.02;;
55827;SDS011;41758;51.992;5.890;2023-01-26T03:48:22;43.78;;;17.58;;
55827;SDS011;41758;51.992;5.890;2023-01-26T03:51:06;42.67;;;17.25;;
55827;SDS011;41758;51.992;5.890;2023-01-26T03:56:35;43.60;;;17.10;;
55827;SDS011;41758;51.992;5.890;2023-01-26T03:59:06;49.00;;;16.73;;
55827;SDS011;41758;51.992;5.890;2023-01-26T04:01:37;44.47;;;17.75;;
55827;SDS011;41758;51.992;5.890;2023-01-26T04:04:22;49.22;;;18.15;;
55827;SDS011;41758;51.992;5.890;2023-01-26T04:07:07;44.55;;;17.13;;
55827;SDS011;41758;51.992;5.890;2023-01-26T04:09:51;43.53;;;16.58;;
55827;SDS011;41758;51.992;5.890;2023-01-26T04:12:17;43.38;;;16.55;;
55827;SDS011;41758;51.992;5.890;2023-01-26T04:14:55;40.70;;;17.23;;
55827;SDS011;41758;51.992;5.890;2023-01-26T04:17:40;40.92;;;16.45;;
55827;SDS011;41758;51.992;5.890;2023-01-26T04:20:24;40.05;;;16.33;;
55827;SDS011;41758;51.992;5.890;2023-01-26T04:23:16;41.63;;;17.25;;
55827;SDS011;41758;51.992;5.890;2023-01-26T04:28:09;40.42;;;16.50;;
55827;SDS011;41758;51.992;5.890;2023-01-26T04:30:37;38.80;;;15.88;;
55827;SDS011;41758;51.992;5.890;2023-01-26T04:33:03;41.03;;;16.60;;
55827;SDS011;41758;51.992;5.890;2023-01-26T04:35:29;40.35;;;16.38;;
55827;SDS011;41758;51.992;5.890;2023-01-26T04:37:55;37.80;;;15.65;;
55827;SDS011;41758;51.992;5.890;2023-01-26T04:40:21;40.80;;;17.27;;
55827;SDS011;41758;51.992;5.890;2023-01-26T04:42:48;35.90;;;15.32;;
55827;SDS011;41758;51.992;5.890;2023-01-26T04:45:14;39.42;;;15.70;;
55827;SDS011;41758;51.992;5.890;2023-01-26T04:47:42;42.28;;;15.85;;
55827;SDS011;41758;51.992;5.890;2023-01-26T04:50:08;39.15;;;15.10;;
55827;SDS011;41758;51.992;5.890;2023-01-26T04:52:34;36.80;;;15.23;;
55827;SDS011;41758;51.992;5.890;2023-01-26T04:54:59;35.40;;;15.55;;
55827;SDS011;41758;51.992;5.890;2023-01-26T04:57:26;41.42;;;16.02;;
55827;SDS011;41758;51.992;5.890;2023-01-26T04:59:52;35.70;;;15.57;;
55827;SDS011;41758;51.992;5.890;2023-01-26T05:02:19;39.15;;;16.17;;
55827;SDS011;41758;51.992;5.890;2023-01-26T05:04:45;36.60;;;16.20;;
55827;SDS011;41758;51.992;5.890;2023-01-26T05:07:12;36.70;;;15.48;;
55827;SDS011;41758;51.992;5.890;2023-01-26T05:09:38;35.30;;;15.50;;
55827;SDS011;41758;51.992;5.890;2023-01-26T05:12:22;35.72;;;15.57;;
55827;SDS011;41758;51.992;5.890;2023-01-26T05:15:24;35.00;;;15.35;;
55827;SDS011;41758;51.992;5.890;2023-01-26T05:18:01;39.47;;;15.60;;
55827;SDS011;41758;51.992;5.890;2023-01-26T05:20:54;38.33;;;15.93;;
55827;SDS011;41758;51.992;5.890;2023-01-26T05:23:25;36.00;;;15.07;;
55827;SDS011;41758;51.992;5.890;2023-01-26T05:26:09;36.22;;;14.98;;
55827;SDS011;41758;51.992;5.890;2023-01-26T05:28:44;37.00;;;15.45;;
55827;SDS011;41758;51.992;5.890;2023-01-26T05:31:10;34.25;;;14.73;;
55827;SDS011;41758;51.992;5.890;2023-01-26T05:33:36;34.63;;;15.98;;
55827;SDS011;41758;51.992;5.890;2023-01-26T05:36:03;34.40;;;14.48;;
55827;SDS011;41758;51.992;5.890;2023-01-26T05:38:32;38.88;;;15.43;;
55827;SDS011;41758;51.992;5.890;2023-01-26T05:40:59;40.00;;;16.13;;
55827;SDS011;41758;51.992;5.890;2023-01-26T05:43:25;37.70;;;15.55;;
55827;SDS011;41758;51.992;5.890;2023-01-26T05:46:08;37.28;;;15.73;;
55827;SDS011;41758;51.992;5.890;2023-01-26T05:48:37;38.75;;;15.10;;
55827;SDS011;41758;51.992;5.890;2023-01-26T05:51:03;38.42;;;15.88;;
55827;SDS011;41758;51.992;5.890;2023-01-26T05:53:30;35.30;;;15.52;;
55827;SDS011;41758;51.992;5.890;2023-01-26T05:55:56;31.20;;;14.32;;
55827;SDS011;41758;51.992;5.890;2023-01-26T05:58:23;34.65;;;14.45;;
55827;SDS011;41758;51.992;5.890;2023-01-26T06:00:49;35.65;;;14.55;;
55827;SDS011;41758;51.992;5.890;2023-01-26T06:03:22;32.25;;;14.00;;
55827;SDS011;41758;51.992;5.890;2023-01-26T06:05:52;33.92;;;14.23;;
55827;SDS011;41758;51.992;5.890;2023-01-26T06:08:48;28.75;;;13.23;;
55827;SDS011;41758;51.992;5.890;2023-01-26T06:11:32;31.15;;;13.32;;
55827;SDS011;41758;51.992;5.890;2023-01-26T06:14:12;33.65;;;13.65;;
55827;SDS011;41758;51.992;5.890;2023-01-26T06:16:38;36.85;;;14.93;;
55827;SDS011;41758;51.992;5.890;2023-01-26T06:19:07;34.63;;;13.77;;
55827;SDS011;41758;51.992;5.890;2023-01-26T06:21:34;31.55;;;13.45;;
55827;SDS011;41758;51.992;5.890;2023-01-26T06:24:01;32.95;;;13.93;;
55827;SDS011;41758;51.992;5.890;2023-01-26T06:26:27;32.45;;;14.23;;
55827;SDS011;41758;51.992;5.890;2023-01-26T06:28:54;33.30;;;14.20;;
55827;SDS011;41758;51.992;5.890;2023-01-26T06:31:20;32.15;;;13.32;;
55827;SDS011;41758;51.992;5.890;2023-01-26T06:33:48;33.00;;;13.60;;
55827;SDS011;41758;51.992;5.890;2023-01-26T06:36:15;35.90;;;14.77;;
55827;SDS011;41758;51.992;5.890;2023-01-26T06:38:45;30.55;;;13.55;;
55827;SDS011;41758;51.992;5.890;2023-01-26T06:41:12;33.28;;;14.82;;
55827;SDS011;41758;51.992;5.890;2023-01-26T06:43:38;34.75;;;13.90;;
55827;SDS011;41758;51.992;5.890;2023-01-26T06:46:04;30.48;;;13.30;;
55827;SDS011;41758;51.992;5.890;2023-01-26T06:48:33;31.98;;;13.20;;
55827;SDS011;41758;51.992;5.890;2023-01-26T06:53:48;31.70;;;13.65;;
55827;SDS011;41758;51.992;5.890;2023-01-26T06:59:15;36.78;;;13.95;;
55827;SDS011;41758;51.992;5.890;2023-01-26T07:02:00;33.38;;;13.20;;
55827;SDS011;41758;51.992;5.890;2023-01-26T07:04:25;30.15;;;12.48;;
55827;SDS011;41758;51.992;5.890;2023-01-26T07:06:51;26.98;;;12.50;;
55827;SDS011;41758;51.992;5.890;2023-01-26T07:09:20;35.30;;;13.60;;
55827;SDS011;41758;51.992;5.890;2023-01-26T07:11:46;32.25;;;12.82;;
55827;SDS011;41758;51.992;5.890;2023-01-26T07:14:11;32.13;;;12.73;;
55827;SDS011;41758;51.992;5.890;2023-01-26T07:16:37;33.25;;;13.10;;
55827;SDS011;41758;51.992;5.890;2023-01-26T07:19:03;29.33;;;13.52;;
55827;SDS011;41758;51.992;5.890;2023-01-26T07:21:28;31.92;;;13.40;;
55827;SDS011;41758;51.992;5.890;2023-01-26T07:23:54;33.17;;;12.90;;
55827;SDS011;41758;51.992;5.890;2023-01-26T07:26:20;31.52;;;13.38;;
55827;SDS011;41758;51.992;5.890;2023-01-26T07:28:46;31.35;;;13.35;;
55827;SDS011;41758;51.992;5.890;2023-01-26T07:31:12;30.67;;;13.65;;
55827;SDS011;41758;51.992;5.890;2023-01-26T07:33:38;29.80;;;13.10;;
55827;SDS011;41758;51.992;5.890;2023-01-26T07:36:04;33.80;;;13.85;;
55827;SDS011;41758;51.992;5.890;2023-01-26T07:38:31;34.35;;;13.48;;
55827;SDS011;41758;51.992;5.890;2023-01-26T07:40:57;33.33;;;14.32;;
55827;SDS011;41758;51.992;5.890;2023-01-26T07:43:23;34.20;;;14.50;;
55827;SDS011;41758;51.992;5.890;2023-01-26T07:45:54;37.35;;;15.20;;
55827;SDS011;41758;51.992;5.890;2023-01-26T07:48:21;33.42;;;14.10;;
55827;SDS011;41758;51.992;5.890;2023-01-26T07:50:49;30.83;;;13.73;;
55827;SDS011;41758;51.992;5.890;2023-01-26T07:53:15;32.38;;;13.82;;
55827;SDS011;41758;51.992;5.890;2023-01-26T07:55:46;35.85;;;14.07;;
55827;SDS011;41758;51.992;5.890;2023-01-26T07:58:13;34.80;;;14.77;;
55827;SDS011;41758;51.992;5.890;2023-01-26T08:00:39;30.55;;;13.23;;
55827;SDS011;41758;51.992;5.890;2023-01-26T08:03:05;39.47;;;14.25;;
55827;SDS011;41758;51.992;5.890;2023-01-26T08:05:31;40.65;;;15.05;;
55827;SDS011;41758;51.992;5.890;2023-01-26T08:07:58;32.45;;;14.13;;
55827;SDS011;41758;51.992;5.890;2023-01-26T08:10:24;38.45;;;15.27;;
55827;SDS011;41758;51.992;5.890;2023-01-26T08:12:51;32.75;;;14.27;;
55827;SDS011;41758;51.992;5.890;2023-01-26T08:15:16;39.58;;;14.30;;
55827;SDS011;41758;51.992;5.890;2023-01-26T08:17:42;35.60;;;14.20;;
55827;SDS011;41758;51.992;5.890;2023-01-26T08:20:08;34.97;;;13.77;;
55827;SDS011;41758;51.992;5.890;2023-01-26T08:22:34;36.67;;;14.70;;
55827;SDS011;41758;51.992;5.890;2023-01-26T08:25:00;34.10;;;14.57;;
55827;SDS011;41758;51.992;5.890;2023-01-26T08:27:26;35.53;;;14.55;;
55827;SDS011;41758;51.992;5.890;2023-01-26T08:30:09;32.65;;;13.90;;
55827;SDS011;41758;51.992;5.890;2023-01-26T08:32:41;36.42;;;15.38;;
55827;SDS011;41758;51.992;5.890;2023-01-26T08:39:19;38.97;;;14.10;;
55827;SDS011;41758;51.992;5.890;2023-01-26T08:41:46;36.92;;;14.43;;
55827;SDS011;41758;51.992;5.890;2023-01-26T08:44:12;38.30;;;14.13;;
55827;SDS011;41758;51.992;5.890;2023-01-26T08:46:38;38.80;;;14.20;;
55827;SDS011;41758;51.992;5.890;2023-01-26T08:49:09;42.92;;;14.35;;
55827;SDS011;41758;51.992;5.890;2023-01-26T08:51:38;42.20;;;14.07;;
55827;SDS011;41758;51.992;5.890;2023-01-26T08:54:12;41.05;;;14.32;;
55827;SDS011;41758;51.992;5.890;2023-01-26T08:56:44;39.25;;;14.57;;
55827;SDS011;41758;51.992;5.890;2023-01-26T09:02:32;45.47;;;14.80;;
55827;SDS011;41758;51.992;5.890;2023-01-26T09:05:59;43.47;;;16.13;;
55827;SDS011;41758;51.992;5.890;2023-01-26T09:49:04;38.75;;;15.32;;
55827;SDS011;41758;51.992;5.890;2023-01-26T09:51:35;42.53;;;15.48;;
55827;SDS011;41758;51.992;5.890;2023-01-26T09:56:47;40.13;;;15.95;;
55827;SDS011;41758;51.992;5.890;2023-01-26T10:09:24;36.22;;;13.73;;
55827;SDS011;41758;51.992;5.890;2023-01-26T10:12:01;37.42;;;13.90;;
55827;SDS011;41758;51.992;5.890;2023-01-26T10:14:44;35.25;;;13.50;;
55827;SDS011;41758;51.992;5.890;2023-01-26T10:17:19;34.95;;;13.85;;
55827;SDS011;41758;51.992;5.890;2023-01-26T10:20:17;38.08;;;14.40;;
55827;SDS011;41758;51.992;5.890;2023-01-26T10:25:41;31.63;;;12.90;;
55827;SDS011;41758;51.992;5.890;2023-01-26T10:28:25;47.45;;;19.60;;
55827;SDS011;41758;51.992;5.890;2023-01-26T10:31:13;28.60;;;13.07;;
55827;SDS011;41758;51.992;5.890;2023-01-26T10:34:21;28.60;;;11.98;;
55827;SDS011;41758;51.992;5.890;2023-01-26T10:40:26;31.90;;;11.48;;
55827;SDS011;41758;51.992;5.890;2023-01-26T10:43:10;30.08;;;10.82;;
55827;SDS011;41758;51.992;5.890;2023-01-26T10:46:05;24.13;;;10.35;;
55827;SDS011;41758;51.992;5.890;2023-01-26T10:49:12;24.58;;;10.60;;
55827;SDS011;41758;51.992;5.890;2023-01-26T10:54:42;19.77;;;9.35;;
55827;SDS011;41758;51.992;5.890;2023-01-26T10:57:47;23.10;;;9.45;;
55827;SDS011;41758;51.992;5.890;2023-01-26T11:00:25;26.65;;;10.48;;
55827;SDS011;41758;51.992;5.890;2023-01-26T11:03:02;25.85;;;9.88;;
55827;SDS011;41758;51.992;5.890;2023-01-26T11:05:38;21.42;;;9.25;;
55827;SDS011;41758;51.992;5.890;2023-01-26T11:08:10;21.20;;;9.55;;
55827;SDS011;41758;51.992;5.890;2023-01-26T11:11:06;22.85;;;9.13;;
55827;SDS011;41758;51.992;5.890;2023-01-26T11:14:10;22.33;;;8.93;;
55827;SDS011;41758;51.992;5.890;2023-01-26T11:16:38;21.30;;;8.30;;
55827;SDS011;41758;51.992;5.890;2023-01-26T11:19:12;20.50;;;9.25;;
55827;SDS011;41758;51.992;5.890;2023-01-26T11:22:12;22.42;;;8.90;;
55827;SDS011;41758;51.992;5.890;2023-01-26T11:24:59;19.05;;;9.07;;
55827;SDS011;41758;51.992;5.890;2023-01-26T11:27:39;35.20;;;15.43;;
55827;SDS011;41758;51.992;5.890;2023-01-26T11:30:26;24.85;;;10.10;;
55827;SDS011;41758;51.992;5.890;2023-01-26T11:33:21;22.90;;;8.95;;
55827;SDS011;41758;51.992;5.890;2023-01-26T11:36:09;20.02;;;8.32;;
55827;SDS011;41758;51.992;5.890;2023-01-26T11:39:08;22.48;;;8.10;;
55827;SDS011;41758;51.992;5.890;2023-01-26T12:01:28;16.88;;;7.00;;
55827;SDS011;41758;51.992;5.890;2023-01-26T12:04:00;17.43;;;7.13;;
55827;SDS011;41758;51.992;5.890;2023-01-26T12:09:07;16.25;;;6.35;;
55827;SDS011;41758;51.992;5.890;2023-01-26T12:14:30;17.23;;;7.07;;
55827;SDS011;41758;51.992;5.890;2023-01-26T12:17:22;25.35;;;6.47;;
55827;SDS011;41758;51.992;5.890;2023-01-26T12:22:52;23.95;;;7.15;;
55827;SDS011;41758;51.992;5.890;2023-01-26T12:28:18;19.13;;;6.68;;
55827;SDS011;41758;51.992;5.890;2023-01-26T12:33:34;18.05;;;6.25;;
55827;SDS011;41758;51.992;5.890;2023-01-26T12:58:43;14.95;;;3.47;;
55827;SDS011;41758;51.992;5.890;2023-01-26T13:03:45;13.95;;;2.92;;
55827;SDS011;41758;51.992;5.890;2023-01-26T13:06:26;8.30;;;2.60;;
55827;SDS011;41758;51.992;5.890;2023-01-26T13:16:52;12.13;;;3.00;;
55827;SDS011;41758;51.992;5.890;2023-01-26T13:24:57;19.48;;;2.95;;
55827;SDS011;41758;51.992;5.890;2023-01-26T13:33:00;8.63;;;2.47;;
55827;SDS011;41758;51.992;5.890;2023-01-26T13:35:33;9.27;;;2.60;;
55827;SDS011;41758;51.992;5.890;2023-01-26T13:38:10;16.58;;;3.38;;
55827;SDS011;41758;51.992;5.890;2023-01-26T13:43:20;9.88;;;2.60;;
55827;SDS011;41758;51.992;5.890;2023-01-26T13:46:05;10.13;;;2.70;;
55827;SDS011;41758;51.992;5.890;2023-01-26T13:48:45;9.18;;;2.53;;
55827;SDS011;41758;51.992;5.890;2023-01-26T13:51:28;10.73;;;2.60;;
55827;SDS011;41758;51.992;5.890;2023-01-26T13:54:10;13.55;;;3.10;;
55827;SDS011;41758;51.992;5.890;2023-01-26T13:56:43;8.13;;;3.00;;
55827;SDS011;41758;51.992;5.890;2023-01-26T13:59:33;10.25;;;2.22;;
55827;SDS011;41758;51.992;5.890;2023-01-26T14:02:20;11.88;;;2.58;;
55827;SDS011;41758;51.992;5.890;2023-01-26T14:04:50;12.20;;;2.72;;
55827;SDS011;41758;51.992;5.890;2023-01-26T14:07:33;10.70;;;2.40;;
55827;SDS011;41758;51.992;5.890;2023-01-26T14:10:31;10.02;;;2.63;;
55827;SDS011;41758;51.992;5.890;2023-01-26T14:13:23;16.52;;;2.80;;
55827;SDS011;41758;51.992;5.890;2023-01-26T14:16:05;13.80;;;2.60;;
55827;SDS011;41758;51.992;5.890;2023-01-26T14:19:02;11.65;;;2.80;;
55827;SDS011;41758;51.992;5.890;2023-01-26T14:21:56;13.07;;;2.60;;
55827;SDS011;41758;51.992;5.890;2023-01-26T14:24:46;11.13;;;2.30;;
55827;SDS011;41758;51.992;5.890;2023-01-26T14:30:30;7.70;;;2.17;;
55827;SDS011;41758;51.992;5.890;2023-01-26T14:33:25;7.03;;;2.08;;
55827;SDS011;41758;51.992;5.890;2023-01-26T14:35:56;8.57;;;2.25;;
55827;SDS011;41758;51.992;5.890;2023-01-26T14:38:38;8.50;;;2.10;;
55827;SDS011;41758;51.992;5.890;2023-01-26T14:41:25;7.78;;;2.20;;
55827;SDS011;41758;51.992;5.890;2023-01-26T14:44:06;4.65;;;1.90;;
55827;SDS011;41758;51.992;5.890;2023-01-26T14:47:14;5.03;;;1.90;;
55827;SDS011;41758;51.992;5.890;2023-01-26T14:50:09;5.20;;;1.73;;
55827;SDS011;41758;51.992;5.890;2023-01-26T14:53:11;8.75;;;1.98;;
55827;SDS011;41758;51.992;5.890;2023-01-26T14:56:40;5.63;;;1.75;;
55827;SDS011;41758;51.992;5.890;2023-01-26T14:59:18;4.22;;;1.65;;
55827;SDS011;41758;51.992;5.890;2023-01-26T15:01:50;7.28;;;1.63;;
55827;SDS011;41758;51.992;5.890;2023-01-26T15:04:33;5.78;;;1.65;;
55827;SDS011;41758;51.992;5.890;2023-01-26T15:07:21;7.93;;;2.17;;
55827;SDS011;41758;51.992;5.890;2023-01-26T15:10:23;9.65;;;2.03;;
55827;SDS011;41758;51.992;5.890;2023-01-26T15:15:40;5.88;;;1.83;;
55827;SDS011;41758;51.992;5.890;2023-01-26T15:18:17;8.00;;;2.28;;
55827;SDS011;41758;51.992;5.890;2023-01-26T15:23:52;8.60;;;2.20;;
55827;SDS011;41758;51.992;5.890;2023-01-26T15:26:28;5.18;;;1.65;;
55827;SDS011;41758;51.992;5.890;2023-01-26T15:28:57;11.88;;;2.47;;
55827;SDS011;41758;51.992;5.890;2023-01-26T15:31:38;6.22;;;2.03;;
55827;SDS011;41758;51.992;5.890;2023-01-26T15:36:55;5.82;;;1.92;;
55827;SDS011;41758;51.992;5.890;2023-01-26T15:39:28;4.15;;;1.70;;
55827;SDS011;41758;51.992;5.890;2023-01-26T15:42:19;5.80;;;1.83;;
55827;SDS011;41758;51.992;5.890;2023-01-26T15:44:52;5.80;;;1.83;;
55827;SDS011;41758;51.992;5.890;2023-01-26T15:47:48;8.57;;;1.75;;
55827;SDS011;41758;51.992;5.890;2023-01-26T15:50:41;6.57;;;1.65;;
55827;SDS011;41758;51.992;5.890;2023-01-26T15:53:18;7.93;;;2.03;;
55827;SDS011;41758;51.992;5.890;2023-01-26T15:55:48;7.75;;;2.22;;
55827;SDS011;41758;51.992;5.890;2023-01-26T15:58:20;7.57;;;2.13;;
55827;SDS011;41758;51.992;5.890;2023-01-26T16:01:08;7.20;;;2.03;;
55827;SDS011;41758;51.992;5.890;2023-01-26T16:07:16;5.93;;;1.75;;
55827;SDS011;41758;51.992;5.890;2023-01-26T16:09:55;7.28;;;2.00;;
55827;SDS011;41758;51.992;5.890;2023-01-26T16:12:31;8.63;;;1.75;;
55827;SDS011;41758;51.992;5.890;2023-01-26T16:15:25;6.95;;;2.17;;
55827;SDS011;41758;51.992;5.890;2023-01-26T16:18:50;7.05;;;2.22;;
55827;SDS011;41758;51.992;5.890;2023-01-26T16:21:49;9.00;;;2.17;;
55827;SDS011;41758;51.992;5.890;2023-01-26T16:24:37;8.88;;;2.78;;
55827;SDS011;41758;51.992;5.890;2023-01-26T16:27:54;9.35;;;2.25;;
55827;SDS011;41758;51.992;5.890;2023-01-26T16:37:13;9.35;;;2.50;;
55827;SDS011;41758;51.992;5.890;2023-01-26T16:39:38;12.60;;;2.15;;
55827;SDS011;41758;51.992;5.890;2023-01-26T16:42:22;4.90;;;2.22;;
55827;SDS011;41758;51.992;5.890;2023-01-26T16:44:48;8.93;;;2.17;;
55827;SDS011;41758;51.992;5.890;2023-01-26T16:47:14;9.30;;;1.98;;
55827;SDS011;41758;51.992;5.890;2023-01-26T16:49:40;9.43;;;2.50;;
55827;SDS011;41758;51.992;5.890;2023-01-26T16:52:07;8.82;;;2.15;;
55827;SDS011;41758;51.992;5.890;2023-01-26T16:54:33;8.18;;;1.98;;
55827;SDS011;41758;51.992;5.890;2023-01-26T16:56:58;6.13;;;2.10;;
55827;SDS011;41758;51.992;5.890;2023-01-26T16:59:24;7.93;;;2.05;;
55827;SDS011;41758;51.992;5.890;2023-01-26T17:01:50;7.90;;;1.92;;
55827;SDS011;41758;51.992;5.890;2023-01-26T17:04:16;6.13;;;1.85;;
55827;SDS011;41758;51.992;5.890;2023-01-26T17:06:41;7.55;;;1.77;;
55827;SDS011;41758;51.992;5.890;2023-01-26T17:09:07;8.35;;;2.20;;
55827;SDS011;41758;51.992;5.890;2023-01-26T17:11:34;12.43;;;2.25;;
55827;SDS011;41758;51.992;5.890;2023-01-26T17:14:00;6.80;;;1.98;;
55827;SDS011;41758;51.992;5.890;2023-01-26T17:16:27;8.98;;;1.95;;
55827;SDS011;41758;51.992;5.890;2023-01-26T17:18:53;5.85;;;1.58;;
55827;SDS011;41758;51.992;5.890;2023-01-26T17:21:20;6.05;;;1.92;;
55827;SDS011;41758;51.992;5.890;2023-01-26T17:23:51;5.13;;;1.75;;
55827;SDS011;41758;51.992;5.890;2023-01-26T17:26:18;7.32;;;1.98;;
55827;SDS011;41758;51.992;5.890;2023-01-26T17:28:46;11.85;;;2.03;;
55827;SDS011;41758;51.992;5.890;2023-01-26T17:31:15;7.95;;;1.90;;
55827;SDS011;41758;51.992;5.890;2023-01-26T17:33:45;9.32;;;1.88;;
55827;SDS011;41758;51.992;5.890;2023-01-26T17:36:13;6.63;;;1.85;;
55827;SDS011;41758;51.992;5.890;2023-01-26T17:38:43;9.60;;;1.90;;
55827;SDS011;41758;51.992;5.890;2023-01-26T17:41:09;7.90;;;2.20;;
55827;SDS011;41758;51.992;5.890;2023-01-26T17:43:34;7.47;;;2.20;;
55827;SDS011;41758;51.992;5.890;2023-01-26T17:46:03;5.90;;;1.92;;
55827;SDS011;41758;51.992;5.890;2023-01-26T17:48:40;7.90;;;2.15;;
55827;SDS011;41758;51.992;5.890;2023-01-26T17:51:15;9.35;;;5.22;;
55827;SDS011;41758;51.992;5.890;2023-01-26T17:53:43;7.28;;;2.75;;
55827;SDS011;41758;51.992;5.890;2023-01-26T17:56:11;9.07;;;2.80;;
55827;SDS011;41758;51.992;5.890;2023-01-26T17:58:39;9.95;;;2.75;;
55827;SDS011;41758;51.992;5.890;2023-01-26T18:01:06;11.70;;;3.05;;
55827;SDS011;41758;51.992;5.890;2023-01-26T18:03:33;22.42;;;8.07;;
55827;SDS011;41758;51.992;5.890;2023-01-26T18:06:01;35.33;;;9.32;;
55827;SDS011;41758;51.992;5.890;2023-01-26T18:08:27;9.98;;;4.22;;
55827;SDS011;41758;51.992;5.890;2023-01-26T18:11:00;30.33;;;9.10;;
55827;SDS011;41758;51.992;5.890;2023-01-26T18:13:28;56.47;;;19.67;;
55827;SDS011;41758;51.992;5.890;2023-01-26T18:15:55;15.88;;;6.88;;
55827;SDS011;41758;51.992;5.890;2023-01-26T18:18:21;8.50;;;3.38;;
55827;SDS011;41758;51.992;5.890;2023-01-26T18:20:48;10.30;;;3.13;;
55827;SDS011;41758;51.992;5.890;2023-01-26T18:23:14;12.23;;;2.80;;